createdAt,value
2019-01-24T00:05:44.570Z,0.20
2019-01-24T00:11:48.991Z,-0.20
2019-01-24T00:17:53.307Z,-0.30
2019-01-24T00:23:57.515Z,-0.40
2019-01-24T00:30:01.811Z,-0.40
2019-01-24T00:36:06.074Z,-0.60
2019-01-24T00:42:10.305Z,-0.30
2019-01-24T00:48:14.592Z,-0.30
2019-01-24T00:54:18.820Z,-0.30
2019-01-24T01:00:25.134Z,-0.30
2019-01-24T01:06:29.358Z,-0.30
2019-01-24T01:12:33.706Z,-0.30
2019-01-24T01:18:37.920Z,-0.40
2019-01-24T01:24:42.177Z,-0.60
2019-01-24T01:30:46.449Z,-0.60
2019-01-24T01:36:50.698Z,-0.60
2019-01-24T01:42:54.902Z,-0.60
2019-01-24T01:48:59.348Z,-0.80
2019-01-24T01:55:03.631Z,-0.80
2019-01-24T02:01:07.938Z,-0.90
2019-01-24T02:07:12.250Z,-0.90
2019-01-24T02:13:16.473Z,-0.90
2019-01-24T02:19:20.789Z,-1.10
2019-01-24T02:25:25.089Z,-1.00
2019-01-24T02:31:29.322Z,-1.20
2019-01-24T02:37:33.571Z,-1.50
2019-01-24T02:43:37.869Z,-1.60
2019-01-24T02:49:42.314Z,-1.60
2019-01-24T02:55:46.580Z,-1.70
2019-01-24T03:01:50.822Z,-2.00
2019-01-24T03:07:55.137Z,-2.20
2019-01-24T03:13:59.383Z,-2.20
2019-01-24T03:20:04.060Z,-1.90
2019-01-24T03:26:08.357Z,-1.70
2019-01-24T03:32:12.586Z,-1.60
2019-01-24T03:38:16.857Z,-1.50
2019-01-24T03:44:21.107Z,-1.30
2019-01-24T03:50:25.336Z,-1.30
2019-01-24T03:56:29.568Z,-1.60
2019-01-24T04:02:33.921Z,-1.70
2019-01-24T04:08:38.206Z,-1.80
2019-01-24T04:14:42.485Z,-2.10
2019-01-24T04:20:46.782Z,-2.20
2019-01-24T04:26:51.062Z,-2.30
2019-01-24T04:32:55.253Z,-2.40
2019-01-24T04:38:59.464Z,-2.70
2019-01-24T04:45:04.251Z,-2.90
2019-01-24T04:51:08.542Z,-2.90
2019-01-24T04:57:12.737Z,-2.90
2019-01-24T05:03:17.119Z,-3.30
2019-01-24T05:09:21.344Z,-3.40
2019-01-24T05:15:25.637Z,-2.90
2019-01-24T05:21:29.883Z,-2.70
2019-01-24T05:27:37.209Z,-3.10
2019-01-24T05:33:41.458Z,-3.30
2019-01-24T05:39:45.673Z,-3.90
2019-01-24T05:45:49.997Z,-3.70
2019-01-24T05:51:54.243Z,-3.90
2019-01-24T05:57:58.478Z,-4.00
2019-01-24T06:04:02.879Z,-4.60
2019-01-24T06:10:10.059Z,-5.10
2019-01-24T06:16:14.386Z,-5.00
2019-01-24T06:22:18.670Z,-5.40
2019-01-24T06:28:22.915Z,-5.60
2019-01-24T06:34:27.143Z,-5.20
2019-01-24T06:40:31.515Z,-5.30
2019-01-24T06:46:35.759Z,-5.20
2019-01-24T06:52:40.001Z,-5.00
2019-01-24T06:58:44.302Z,-5.20
2019-01-24T07:04:48.527Z,-5.20
2019-01-24T07:10:52.898Z,-5.30
2019-01-24T07:16:57.181Z,-5.50
2019-01-24T07:23:01.411Z,-5.40
2019-01-24T07:29:05.697Z,-5.60
2019-01-24T07:35:12.639Z,-5.40
2019-01-24T07:41:17.016Z,-5.40
2019-01-24T07:47:21.202Z,-4.90
2019-01-24T07:53:25.494Z,-4.70
2019-01-24T07:59:29.709Z,-4.40
2019-01-24T08:05:34.184Z,-4.50
2019-01-24T08:11:38.412Z,-4.30
2019-01-24T08:17:43.018Z,-4.00
2019-01-24T08:23:47.209Z,-3.40
2019-01-24T08:29:51.514Z,-3.20
2019-01-24T08:35:55.705Z,-3.20
2019-01-24T08:41:59.922Z,-3.00
2019-01-24T08:48:04.573Z,-2.70
2019-01-24T08:54:08.823Z,-2.30
2019-01-24T09:00:15.628Z,-2.10
2019-01-24T09:06:22.620Z,-2.00
2019-01-24T09:12:30.211Z,-1.70
2019-01-24T09:18:31.956Z,-1.70
2019-01-24T09:24:36.284Z,-1.70
2019-01-24T09:30:40.579Z,-1.50
2019-01-24T09:36:44.803Z,-1.10
2019-01-24T09:42:49.284Z,-0.90
2019-01-24T09:48:53.503Z,-0.80
2019-01-24T09:54:57.744Z,-0.60
2019-01-24T10:01:02.123Z,-0.40
2019-01-24T10:07:06.580Z,-0.20
2019-01-24T10:13:10.808Z,0.00
2019-01-24T10:19:18.021Z,0.20
2019-01-24T10:25:27.691Z,0.50
2019-01-24T10:31:31.908Z,0.70
2019-01-24T10:37:36.235Z,0.80
2019-01-24T10:43:40.522Z,1.00
2019-01-24T10:49:44.773Z,1.20
2019-01-24T10:55:49.093Z,1.30
2019-01-24T11:01:53.330Z,1.40
2019-01-24T11:07:57.614Z,1.60
2019-01-24T11:14:01.900Z,1.70
2019-01-24T11:20:07.820Z,1.70
2019-01-24T11:26:12.106Z,1.60
2019-01-24T11:32:16.374Z,1.60
2019-01-24T11:38:20.680Z,2.00
2019-01-24T11:44:24.900Z,2.30
2019-01-24T11:50:29.122Z,2.40
2019-01-24T11:56:33.310Z,2.30
2019-01-24T12:02:39.779Z,2.50
2019-01-24T12:08:43.789Z,2.50
2019-01-24T12:14:48.165Z,2.60
2019-01-24T12:20:52.374Z,2.60
2019-01-24T12:26:56.564Z,2.80
2019-01-24T12:33:01.092Z,2.70
2019-01-24T12:39:08.939Z,2.80
2019-01-24T12:45:18.190Z,2.90
2019-01-24T12:51:22.377Z,2.80
2019-01-24T12:57:26.943Z,3.00
2019-01-24T13:03:31.149Z,3.10
2019-01-24T13:09:35.362Z,3.10
2019-01-24T13:15:40.119Z,3.20
2019-01-24T13:21:44.334Z,3.20
2019-01-24T13:27:48.672Z,3.30
2019-01-24T13:33:52.961Z,3.20
2019-01-24T13:39:57.254Z,3.30
2019-01-24T13:46:01.473Z,3.30
2019-01-24T13:52:05.884Z,3.20
2019-01-24T13:58:10.627Z,3.20
2019-01-24T14:04:21.399Z,3.20
2019-01-24T14:10:25.911Z,3.20
2019-01-24T14:16:30.116Z,3.20
2019-01-24T14:22:34.481Z,3.30
2019-01-24T14:28:38.681Z,3.30
2019-01-24T14:34:43.094Z,3.30
2019-01-24T14:40:47.323Z,3.30
2019-01-24T14:46:51.561Z,3.30
2019-01-24T14:52:55.741Z,3.30
2019-01-24T14:59:00.092Z,3.30
2019-01-24T15:05:07.503Z,3.30
2019-01-24T15:11:11.719Z,3.20
2019-01-24T15:17:15.989Z,3.10
2019-01-24T15:23:20.271Z,3.20
2019-01-24T15:29:24.592Z,3.10
2019-01-24T15:35:28.800Z,3.10
2019-01-24T15:41:33.147Z,3.10
2019-01-24T15:47:37.461Z,3.10
2019-01-24T15:53:41.726Z,3.00
2019-01-24T15:59:46.029Z,3.10
2019-01-24T16:05:50.248Z,3.00
2019-01-24T16:11:54.544Z,2.90
2019-01-24T16:17:58.766Z,2.90
2019-01-24T16:24:02.985Z,2.90
2019-01-24T16:30:09.733Z,2.90
2019-01-24T16:36:13.992Z,3.00
2019-01-24T16:42:18.227Z,3.00
2019-01-24T16:48:22.433Z,3.00
2019-01-24T16:54:26.746Z,2.90
2019-01-24T17:00:40.329Z,2.70
2019-01-24T17:06:44.860Z,2.60
2019-01-24T17:12:49.110Z,2.70
2019-01-24T17:18:53.612Z,2.60
2019-01-24T17:24:57.850Z,2.50
2019-01-24T17:31:02.208Z,2.40
2019-01-24T17:37:06.472Z,2.40
2019-01-24T17:43:10.757Z,2.30
2019-01-24T17:49:14.978Z,2.30
2019-01-24T17:55:22.211Z,2.50
2019-01-24T18:01:26.436Z,2.40
2019-01-24T18:07:30.850Z,2.40
2019-01-24T18:13:35.092Z,2.10
2019-01-24T18:19:39.463Z,2.00
2019-01-24T18:25:43.738Z,1.80
2019-01-24T18:31:48.039Z,1.80
2019-01-24T18:37:52.304Z,1.80
2019-01-24T18:43:56.546Z,1.50
2019-01-24T18:50:01.900Z,1.50
2019-01-24T18:56:06.138Z,1.50
2019-01-24T19:02:10.454Z,1.50
2019-01-24T19:08:14.781Z,1.60
2019-01-24T19:14:19.240Z,1.30
2019-01-24T19:20:23.476Z,1.30
2019-01-24T19:26:27.950Z,0.80
2019-01-24T19:32:32.160Z,1.00
2019-01-24T19:38:36.389Z,0.80
2019-01-24T19:44:40.717Z,0.60
2019-01-24T19:50:45.109Z,0.40
2019-01-24T19:56:49.337Z,0.60
2019-01-24T20:02:53.875Z,0.70
2019-01-24T20:09:00.398Z,0.60
2019-01-24T20:15:05.514Z,0.80
2019-01-24T20:21:09.807Z,1.00
2019-01-24T20:27:14.164Z,1.10
2019-01-24T20:33:18.620Z,1.20
2019-01-24T20:39:26.033Z,1.30
2019-01-24T20:45:30.404Z,1.30
2019-01-24T20:51:34.827Z,1.40
2019-01-24T20:57:39.244Z,1.60
2019-01-24T21:03:43.575Z,1.70
2019-01-24T21:09:47.919Z,1.50
2019-01-24T21:15:52.275Z,1.60
2019-01-24T21:21:56.641Z,1.60
2019-01-24T21:28:01.014Z,1.60
2019-01-24T21:34:05.351Z,1.70
2019-01-24T21:40:11.792Z,1.70
2019-01-24T21:46:16.244Z,1.70
2019-01-24T21:52:20.580Z,1.70
2019-01-24T21:58:25.448Z,1.70
2019-01-24T22:04:29.851Z,1.70
2019-01-24T22:10:34.177Z,1.60
2019-01-24T22:16:38.657Z,1.60
2019-01-24T22:22:43.162Z,1.60
2019-01-24T22:28:47.666Z,1.60
2019-01-24T22:34:52.048Z,1.60
2019-01-24T22:40:56.417Z,1.60
2019-01-24T22:47:00.784Z,1.50
2019-01-24T22:53:05.323Z,1.50
2019-01-24T22:59:09.999Z,1.40
2019-01-24T23:05:14.851Z,1.40
2019-01-24T23:11:19.299Z,1.40
2019-01-24T23:17:23.658Z,1.20
2019-01-24T23:23:28.005Z,1.10
2019-01-24T23:29:32.395Z,0.90
2019-01-24T23:35:36.815Z,0.80
2019-01-24T23:41:41.205Z,0.70
2019-01-24T23:47:45.562Z,0.60
2019-01-24T23:53:49.932Z,0.70
2019-01-24T23:59:54.529Z,0.80
